createdAt,value
2018-09-08T00:00:14.868Z,13.40
2018-09-08T00:00:50.405Z,13.30
2018-09-08T00:01:25.644Z,13.38
2018-09-08T00:02:01.064Z,13.37
2018-09-08T00:02:36.805Z,13.40
2018-09-08T00:03:14.741Z,13.40
2018-09-08T00:03:52.043Z,13.43
2018-09-08T00:04:30.555Z,13.40
2018-09-08T00:05:05.913Z,13.37
2018-09-08T00:05:41.815Z,13.38
2018-09-08T00:06:17.452Z,13.43
2018-09-08T00:06:54.692Z,13.40
2018-09-08T00:07:31.348Z,13.33
2018-09-08T00:08:07.601Z,13.36
2018-09-08T00:08:43.319Z,13.33
2018-09-08T00:09:18.782Z,13.36
2018-09-08T00:09:54.011Z,13.38
2018-09-08T00:10:29.505Z,13.40
2018-09-08T00:11:04.643Z,13.36
2018-09-08T00:11:39.843Z,13.36
2018-09-08T00:12:15.171Z,13.46
2018-09-08T00:12:50.586Z,13.30
2018-09-08T00:13:25.613Z,13.38
2018-09-08T00:14:01.021Z,13.37
2018-09-08T00:14:36.400Z,13.43
2018-09-08T00:15:11.580Z,13.46
2018-09-08T00:15:47.142Z,13.37
2018-09-08T00:16:22.481Z,13.41
2018-09-08T00:16:58.091Z,13.38
2018-09-08T00:17:33.414Z,13.51
2018-09-08T00:18:08.963Z,13.52
2018-09-08T00:18:44.364Z,13.54
2018-09-08T00:19:19.801Z,13.49
2018-09-08T00:19:54.934Z,13.52
2018-09-08T00:20:30.460Z,13.54
2018-09-08T00:21:06.072Z,13.38
2018-09-08T00:21:41.522Z,13.52
2018-09-08T00:22:17.211Z,13.41
2018-09-08T00:22:52.558Z,13.52
2018-09-08T00:23:27.970Z,13.44
2018-09-08T00:24:03.703Z,13.44
2018-09-08T00:24:39.110Z,13.43
2018-09-08T00:25:14.376Z,13.37
2018-09-08T00:25:49.485Z,13.38
2018-09-08T00:26:25.077Z,13.51
2018-09-08T00:27:00.494Z,13.51
2018-09-08T00:27:35.628Z,13.43
2018-09-08T00:28:11.154Z,13.49
2018-09-08T00:28:46.619Z,13.49
2018-09-08T00:29:22.030Z,13.49
2018-09-08T00:29:57.570Z,13.56
2018-09-08T00:30:33.195Z,13.47
2018-09-08T00:31:08.423Z,13.51
2018-09-08T00:31:43.730Z,13.47
2018-09-08T00:32:18.900Z,13.40
2018-09-08T00:32:54.201Z,13.51
2018-09-08T00:33:29.545Z,13.54
2018-09-08T00:34:04.789Z,13.41
2018-09-08T00:34:40.135Z,13.36
2018-09-08T00:35:15.244Z,13.40
2018-09-08T00:35:50.618Z,13.41
2018-09-08T00:36:25.625Z,13.37
2018-09-08T00:37:00.806Z,13.38
2018-09-08T00:37:36.311Z,13.37
2018-09-08T00:38:11.756Z,13.24
2018-09-08T00:38:47.286Z,13.32
2018-09-08T00:39:22.506Z,13.30
2018-09-08T00:39:57.748Z,13.29
2018-09-08T00:40:33.157Z,13.33
2018-09-08T00:41:08.389Z,13.32
2018-09-08T00:41:43.840Z,13.30
2018-09-08T00:42:19.132Z,13.27
2018-09-08T00:42:54.378Z,13.27
2018-09-08T00:43:29.678Z,13.30
2018-09-08T00:44:04.698Z,13.24
2018-09-08T00:44:40.132Z,13.30
2018-09-08T00:45:15.387Z,13.24
2018-09-08T00:45:51.053Z,13.32
2018-09-08T00:46:26.306Z,13.29
2018-09-08T00:47:01.733Z,13.30
2018-09-08T00:47:37.112Z,13.29
2018-09-08T00:48:12.802Z,13.32
2018-09-08T00:48:48.249Z,13.27
2018-09-08T00:49:23.565Z,13.33
2018-09-08T00:49:59.096Z,13.30
2018-09-08T00:50:34.239Z,13.27
2018-09-08T00:51:09.573Z,13.44
2018-09-08T00:51:44.728Z,13.40
2018-09-08T00:52:20.086Z,13.36
2018-09-08T00:52:55.475Z,13.32
2018-09-08T00:53:30.875Z,13.37
2018-09-08T00:54:05.982Z,13.32
2018-09-08T00:54:41.627Z,13.36
2018-09-08T00:55:16.833Z,13.29
2018-09-08T00:55:52.082Z,13.29
2018-09-08T00:56:27.382Z,13.25
2018-09-08T00:57:03.048Z,13.32
2018-09-08T00:57:38.390Z,13.27
2018-09-08T00:58:14.243Z,13.29
2018-09-08T00:58:49.457Z,13.25
2018-09-08T00:59:24.799Z,13.17
2018-09-08T01:00:00.113Z,13.27
2018-09-08T01:00:35.743Z,13.33
2018-09-08T01:01:11.178Z,13.25
2018-09-08T01:01:46.419Z,13.18
2018-09-08T01:02:21.666Z,13.14
2018-09-08T01:02:56.910Z,13.22
2018-09-08T01:03:32.410Z,13.30
2018-09-08T01:04:07.667Z,13.30
2018-09-08T01:04:43.190Z,13.32
2018-09-08T01:05:18.966Z,13.38
2018-09-08T01:05:54.668Z,13.33
2018-09-08T01:06:30.107Z,13.38
2018-09-08T01:07:05.424Z,13.38
2018-09-08T01:07:40.785Z,13.40
2018-09-08T01:08:16.200Z,13.41
2018-09-08T01:08:51.478Z,13.40
2018-09-08T01:09:26.687Z,13.47
2018-09-08T01:10:02.025Z,13.52
2018-09-08T01:10:37.406Z,13.49
2018-09-08T01:11:12.634Z,13.56
2018-09-08T01:11:47.985Z,13.52
2018-09-08T01:12:23.317Z,13.54
2018-09-08T01:12:58.788Z,13.49
2018-09-08T01:13:34.009Z,13.49
2018-09-08T01:14:09.202Z,13.40
2018-09-08T01:14:44.364Z,13.56
2018-09-08T01:15:19.668Z,13.51
2018-09-08T01:15:55.248Z,13.49
2018-09-08T01:16:30.659Z,13.54
2018-09-08T01:17:05.970Z,13.52
2018-09-08T01:17:41.190Z,13.47
2018-09-08T01:18:16.452Z,13.49
2018-09-08T01:18:51.960Z,13.47
2018-09-08T01:19:27.000Z,13.43
2018-09-08T01:20:02.424Z,13.38
2018-09-08T01:20:37.841Z,13.49
2018-09-08T01:21:13.265Z,13.38
2018-09-08T01:21:48.539Z,13.52
2018-09-08T01:22:23.881Z,13.40
2018-09-08T01:22:59.345Z,13.46
2018-09-08T01:23:34.631Z,13.44
2018-09-08T01:24:09.892Z,13.46
2018-09-08T01:24:46.596Z,13.40
2018-09-08T01:25:22.119Z,13.29
2018-09-08T01:25:57.323Z,13.40
2018-09-08T01:26:32.986Z,13.38
2018-09-08T01:27:08.395Z,13.33
2018-09-08T01:27:43.859Z,13.29
2018-09-08T01:28:19.070Z,13.21
2018-09-08T01:28:54.223Z,13.25
2018-09-08T01:29:29.552Z,13.25
2018-09-08T01:30:04.802Z,13.29
2018-09-08T01:30:40.189Z,13.24
2018-09-08T01:31:15.619Z,13.25
2018-09-08T01:31:50.839Z,13.29
2018-09-08T01:32:26.148Z,13.24
2018-09-08T01:33:01.564Z,13.18
2018-09-08T01:33:36.887Z,13.14
2018-09-08T01:34:12.420Z,13.12
2018-09-08T01:34:47.565Z,13.04
2018-09-08T01:35:22.661Z,13.09
2018-09-08T01:35:57.986Z,13.06
2018-09-08T01:36:33.213Z,13.06
2018-09-08T01:37:08.434Z,13.11
2018-09-08T01:37:43.733Z,13.02
2018-09-08T01:38:19.180Z,13.04
2018-09-08T01:38:54.483Z,13.03
2018-09-08T01:39:30.248Z,13.02
2018-09-08T01:40:05.647Z,12.99
2018-09-08T01:40:42.894Z,13.07
2018-09-08T01:41:20.070Z,13.03
2018-09-08T01:41:56.460Z,13.09
2018-09-08T01:42:33.573Z,12.92
2018-09-08T01:43:09.259Z,13.02
2018-09-08T01:43:46.071Z,13.00
2018-09-08T01:44:22.767Z,13.00
2018-09-08T01:44:58.211Z,13.00
2018-09-08T01:45:33.797Z,12.99
2018-09-08T01:46:10.115Z,13.02
2018-09-08T01:46:47.413Z,13.02
2018-09-08T01:47:24.039Z,12.96
2018-09-08T01:48:00.343Z,13.02
2018-09-08T01:48:37.226Z,12.99
2018-09-08T01:49:13.772Z,12.93
2018-09-08T01:49:51.820Z,12.85
2018-09-08T01:50:27.803Z,12.88
2018-09-08T01:51:04.797Z,12.95
2018-09-08T01:51:40.582Z,12.93
2018-09-08T01:52:17.145Z,12.82
2018-09-08T01:52:52.739Z,12.89
2018-09-08T01:53:28.124Z,12.82
2018-09-08T01:54:03.885Z,12.75
2018-09-08T01:54:41.721Z,12.82
2018-09-08T01:55:19.076Z,12.79
2018-09-08T01:55:59.169Z,12.82
2018-09-08T01:56:40.623Z,12.75
2018-09-08T01:57:17.081Z,12.79
2018-09-08T01:57:53.294Z,12.84
2018-09-08T01:58:30.578Z,12.82
2018-09-08T01:59:06.486Z,12.79
2018-09-08T01:59:43.552Z,12.87
2018-09-08T02:00:19.953Z,12.75
2018-09-08T02:00:59.583Z,12.71
2018-09-08T02:01:36.035Z,12.82
2018-09-08T02:02:12.518Z,12.74
2018-09-08T02:02:48.868Z,12.77
2018-09-08T02:03:24.102Z,12.79
2018-09-08T02:04:00.432Z,12.75
2018-09-08T02:04:37.463Z,12.71
2018-09-08T02:05:14.630Z,12.75
2018-09-08T02:05:51.776Z,12.78
2018-09-08T02:06:27.334Z,12.71
2018-09-08T02:07:04.096Z,12.78
2018-09-08T02:07:41.113Z,12.79
2018-09-08T02:08:17.727Z,12.71
2018-09-08T02:08:54.158Z,12.77
2018-09-08T02:09:30.445Z,12.69
2018-09-08T02:10:07.863Z,12.70
2018-09-08T02:10:44.729Z,12.75
2018-09-08T02:11:20.111Z,12.70
2018-09-08T02:11:55.739Z,12.71
2018-09-08T02:12:31.390Z,12.78
2018-09-08T02:13:07.217Z,12.64
2018-09-08T02:13:44.566Z,12.67
2018-09-08T02:14:20.919Z,12.64
2018-09-08T02:14:58.334Z,12.66
2018-09-08T02:15:34.624Z,12.69
2018-09-08T02:16:18.528Z,12.62
2018-09-08T02:16:55.961Z,12.66
2018-09-08T02:17:32.182Z,12.66
2018-09-08T02:18:07.603Z,12.79
2018-09-08T02:18:43.601Z,12.66
2018-09-08T02:19:18.944Z,12.64
2018-09-08T02:19:54.974Z,12.67
2018-09-08T02:20:31.020Z,12.74
2018-09-08T02:21:07.368Z,12.66
2018-09-08T02:21:43.636Z,12.62
2018-09-08T02:22:20.326Z,12.69
2018-09-08T02:22:56.893Z,12.64
2018-09-08T02:23:34.694Z,12.69
2018-09-08T02:24:11.470Z,12.59
2018-09-08T02:24:50.780Z,12.56
2018-09-08T02:25:26.606Z,12.63
2018-09-08T02:26:02.487Z,12.51
2018-09-08T02:26:40.054Z,12.60
2018-09-08T02:27:17.079Z,12.56
2018-09-08T02:27:53.055Z,12.62
2018-09-08T02:28:29.886Z,12.57
2018-09-08T02:29:06.156Z,12.57
2018-09-08T02:29:43.453Z,12.59
2018-09-08T02:30:20.277Z,12.60
2018-09-08T02:30:56.762Z,12.59
2018-09-08T02:31:33.338Z,12.60
2018-09-08T02:32:08.975Z,12.57
2018-09-08T02:32:43.989Z,12.62
2018-09-08T02:33:20.416Z,12.60
2018-09-08T02:33:56.322Z,12.57
2018-09-08T02:34:32.046Z,12.57
2018-09-08T02:35:07.273Z,12.63
2018-09-08T02:35:44.121Z,12.59
2018-09-08T02:36:20.071Z,12.59
2018-09-08T02:36:56.448Z,12.62
2018-09-08T02:37:31.663Z,12.62
2018-09-08T02:38:07.635Z,12.57
2018-09-08T02:38:43.952Z,12.62
2018-09-08T02:39:19.500Z,12.70
2018-09-08T02:39:55.188Z,12.66
2018-09-08T02:40:32.813Z,12.66
2018-09-08T02:41:09.120Z,12.62
2018-09-08T02:41:45.007Z,12.64
2018-09-08T02:42:21.064Z,12.59
2018-09-08T02:42:57.805Z,12.62
2018-09-08T02:43:34.057Z,12.63
2018-09-08T02:44:10.639Z,12.63
2018-09-08T02:44:46.691Z,12.75
2018-09-08T02:45:22.399Z,12.62
2018-09-08T02:45:57.838Z,12.59
2018-09-08T02:46:34.526Z,12.62
2018-09-08T02:47:10.456Z,12.66
2018-09-08T02:47:46.567Z,12.69
2018-09-08T02:48:23.451Z,12.67
2018-09-08T02:49:00.343Z,12.66
2018-09-08T02:49:37.222Z,12.66
2018-09-08T02:50:12.458Z,12.64
2018-09-08T02:50:49.275Z,12.67
2018-09-08T02:51:24.825Z,12.69
2018-09-08T02:52:00.042Z,12.60
2018-09-08T02:52:35.254Z,12.60
2018-09-08T02:53:11.758Z,12.62
2018-09-08T02:53:48.242Z,12.60
2018-09-08T02:54:24.135Z,12.60
2018-09-08T02:55:00.332Z,12.59
2018-09-08T02:55:37.324Z,12.60
2018-09-08T02:56:13.623Z,12.54
2018-09-08T02:56:50.274Z,12.62
2018-09-08T02:57:25.361Z,12.63
2018-09-08T02:58:07.984Z,12.54
2018-09-08T02:58:43.659Z,12.60
2018-09-08T02:59:19.124Z,12.54
2018-09-08T02:59:55.570Z,12.56
2018-09-08T03:00:32.669Z,12.57
2018-09-08T03:01:08.724Z,12.51
2018-09-08T03:01:45.031Z,12.54
2018-09-08T03:02:21.014Z,12.51
2018-09-08T03:02:57.612Z,12.48
2018-09-08T03:03:33.830Z,12.48
2018-09-08T03:04:09.645Z,12.44
2018-09-08T03:04:45.111Z,12.51
2018-09-08T03:05:20.643Z,12.49
2018-09-08T03:05:57.623Z,12.44
2018-09-08T03:06:33.846Z,12.54
2018-09-08T03:07:09.576Z,12.46
2018-09-08T03:07:47.109Z,12.44
2018-09-08T03:08:23.829Z,12.44
2018-09-08T03:09:00.859Z,12.42
2018-09-08T03:09:37.610Z,12.44
2018-09-08T03:10:14.328Z,12.56
2018-09-08T03:10:51.601Z,12.46
2018-09-08T03:11:28.651Z,12.42
2018-09-08T03:12:04.066Z,12.49
2018-09-08T03:12:41.361Z,12.49
2018-09-08T03:13:24.369Z,12.51
2018-09-08T03:14:01.419Z,12.42
2018-09-08T03:14:37.561Z,12.49
2018-09-08T03:15:14.282Z,12.39
2018-09-08T03:15:51.221Z,12.45
2018-09-08T03:16:27.483Z,12.37
2018-09-08T03:17:02.767Z,12.38
2018-09-08T03:17:39.213Z,12.45
2018-09-08T03:18:15.476Z,12.39
2018-09-08T03:18:51.934Z,12.41
2018-09-08T03:19:28.951Z,12.45
2018-09-08T03:20:08.366Z,12.48
2018-09-08T03:20:46.843Z,12.44
2018-09-08T03:21:23.732Z,12.33
2018-09-08T03:22:01.225Z,12.39
2018-09-08T03:22:36.921Z,12.38
2018-09-08T03:23:12.523Z,12.33
2018-09-08T03:23:47.745Z,12.34
2018-09-08T03:24:23.340Z,12.42
2018-09-08T03:24:58.761Z,12.39
2018-09-08T03:25:34.614Z,12.33
2018-09-08T03:26:10.419Z,12.31
2018-09-08T03:26:46.780Z,12.37
2018-09-08T03:27:23.735Z,12.33
2018-09-08T03:27:59.402Z,12.30
2018-09-08T03:28:34.940Z,12.27
2018-09-08T03:29:11.284Z,12.16
2018-09-08T03:29:48.429Z,12.23
2018-09-08T03:30:25.715Z,12.19
2018-09-08T03:31:08.981Z,12.13
2018-09-08T03:31:45.292Z,12.12
2018-09-08T03:32:24.556Z,12.19
2018-09-08T03:33:01.236Z,12.21
2018-09-08T03:33:36.550Z,12.21
2018-09-08T03:34:12.776Z,12.15
2018-09-08T03:34:48.087Z,12.16
2018-09-08T03:35:23.527Z,12.19
2018-09-08T03:35:59.846Z,12.26
2018-09-08T03:36:39.240Z,12.13
2018-09-08T03:37:15.672Z,12.11
2018-09-08T03:37:52.103Z,12.16
2018-09-08T03:38:28.587Z,12.13
2018-09-08T03:39:05.040Z,12.15
2018-09-08T03:39:40.573Z,12.21
2018-09-08T03:40:16.330Z,12.20
2018-09-08T03:40:52.276Z,12.27
2018-09-08T03:41:27.964Z,12.27
2018-09-08T03:42:05.361Z,12.23
2018-09-08T03:42:42.106Z,12.20
2018-09-08T03:43:18.870Z,12.23
2018-09-08T03:43:56.220Z,12.30
2018-09-08T03:44:32.848Z,12.21
2018-09-08T03:45:08.500Z,12.34
2018-09-08T03:45:44.585Z,12.23
2018-09-08T03:46:22.135Z,12.15
2018-09-08T03:46:57.365Z,12.27
2018-09-08T03:47:33.557Z,12.30
2018-09-08T03:48:08.801Z,12.26
2018-09-08T03:48:45.230Z,12.27
2018-09-08T03:49:21.695Z,12.21
2018-09-08T03:49:59.081Z,12.27
2018-09-08T03:50:36.858Z,12.26
2018-09-08T03:51:12.480Z,12.29
2018-09-08T03:51:48.290Z,12.26
2018-09-08T03:52:24.504Z,12.27
2018-09-08T03:53:00.330Z,12.20
2018-09-08T03:53:36.557Z,12.11
2018-09-08T03:54:11.897Z,12.19
2018-09-08T03:54:50.886Z,12.24
2018-09-08T03:55:27.491Z,12.20
2018-09-08T03:56:03.583Z,12.19
2018-09-08T03:56:39.507Z,12.24
2018-09-08T03:57:14.876Z,12.11
2018-09-08T03:57:51.519Z,12.26
2018-09-08T03:58:26.829Z,12.21
2018-09-08T03:59:03.476Z,12.24
2018-09-08T03:59:39.691Z,12.23
2018-09-08T04:00:15.654Z,12.15
2018-09-08T04:00:51.252Z,12.19
2018-09-08T04:01:26.981Z,12.24
2018-09-08T04:02:03.089Z,12.24
2018-09-08T04:02:40.015Z,12.21
2018-09-08T04:03:19.030Z,12.13
2018-09-08T04:03:54.945Z,12.23
2018-09-08T04:04:30.919Z,12.21
2018-09-08T04:05:06.264Z,12.16
2018-09-08T04:05:41.558Z,12.12
2018-09-08T04:06:16.871Z,12.06
2018-09-08T04:06:52.428Z,12.09
2018-09-08T04:07:28.798Z,12.08
2018-09-08T04:08:05.453Z,12.08
2018-09-08T04:08:42.337Z,12.11
2018-09-08T04:09:19.179Z,12.09
2018-09-08T04:09:56.669Z,12.15
2018-09-08T04:10:32.590Z,12.13
2018-09-08T04:11:09.671Z,12.16
2018-09-08T04:11:47.138Z,12.11
2018-09-08T04:12:23.696Z,12.06
2018-09-08T04:12:59.183Z,12.11
2018-09-08T04:13:34.533Z,12.15
2018-09-08T04:14:10.711Z,12.04
2018-09-08T04:14:46.769Z,12.13
2018-09-08T04:15:24.549Z,12.08
2018-09-08T04:16:01.546Z,12.05
2018-09-08T04:16:40.939Z,11.97
2018-09-08T04:17:16.261Z,12.06
2018-09-08T04:17:52.567Z,12.08
2018-09-08T04:18:28.386Z,11.99
2018-09-08T04:19:03.929Z,11.93
2018-09-08T04:19:40.764Z,12.06
2018-09-08T04:20:16.301Z,12.06
2018-09-08T04:20:53.064Z,12.05
2018-09-08T04:21:29.524Z,12.06
2018-09-08T04:22:09.234Z,12.01
2018-09-08T04:22:44.781Z,12.01
2018-09-08T04:23:21.549Z,11.99
2018-09-08T04:23:57.288Z,12.06
2018-09-08T04:24:33.035Z,12.06
2018-09-08T04:25:11.508Z,12.05
2018-09-08T04:25:47.035Z,12.04
2018-09-08T04:26:23.333Z,12.01
2018-09-08T04:26:58.563Z,11.99
2018-09-08T04:27:34.719Z,12.05
2018-09-08T04:28:09.981Z,11.99
2018-09-08T04:28:45.929Z,11.97
2018-09-08T04:29:21.451Z,11.93
2018-09-08T04:29:56.794Z,11.96
2018-09-08T04:30:32.215Z,11.96
2018-09-08T04:31:08.021Z,11.94
2018-09-08T04:31:43.928Z,11.99
2018-09-08T04:32:19.590Z,12.01
2018-09-08T04:32:55.135Z,11.97
2018-09-08T04:33:31.019Z,12.04
2018-09-08T04:34:06.583Z,12.01
2018-09-08T04:34:41.942Z,12.01
2018-09-08T04:35:17.218Z,12.01
2018-09-08T04:35:52.509Z,11.97
2018-09-08T04:36:27.943Z,11.97
2018-09-08T04:37:03.639Z,12.02
2018-09-08T04:37:39.310Z,11.99
2018-09-08T04:38:14.685Z,11.93
2018-09-08T04:38:50.696Z,12.01
2018-09-08T04:39:26.197Z,12.06
2018-09-08T04:40:01.605Z,12.05
2018-09-08T04:40:38.104Z,12.06
2018-09-08T04:41:13.745Z,12.06
2018-09-08T04:41:48.970Z,12.05
2018-09-08T04:42:24.771Z,12.08
2018-09-08T04:43:01.057Z,12.02
2018-09-08T04:43:36.524Z,12.05
2018-09-08T04:44:11.721Z,12.02
2018-09-08T04:44:46.967Z,11.96
2018-09-08T04:45:22.723Z,11.99
2018-09-08T04:45:58.261Z,12.06
2018-09-08T04:46:33.558Z,12.02
2018-09-08T04:47:09.235Z,12.04
2018-09-08T04:47:45.108Z,11.93
2018-09-08T04:48:20.576Z,12.05
2018-09-08T04:48:56.070Z,12.06
2018-09-08T04:49:31.556Z,12.05
2018-09-08T04:50:07.170Z,12.06
2018-09-08T04:50:42.658Z,12.04
2018-09-08T04:51:17.987Z,12.06
2018-09-08T04:51:53.440Z,12.06
2018-09-08T04:52:28.602Z,11.96
2018-09-08T04:53:04.661Z,12.01
2018-09-08T04:53:40.023Z,12.09
2018-09-08T04:54:15.610Z,11.96
2018-09-08T04:54:51.163Z,11.99
2018-09-08T04:55:26.747Z,11.90
2018-09-08T04:56:02.492Z,12.02
2018-09-08T04:56:38.047Z,11.90
2018-09-08T04:57:14.086Z,12.01
2018-09-08T04:57:49.694Z,11.97
2018-09-08T04:58:25.118Z,12.01
2018-09-08T04:59:00.438Z,11.90
2018-09-08T04:59:35.944Z,11.94
2018-09-08T05:00:11.248Z,11.94
2018-09-08T05:00:46.776Z,11.99
2018-09-08T05:01:22.086Z,12.04
2018-09-08T05:01:57.700Z,11.94
2018-09-08T05:02:33.368Z,11.93
2018-09-08T05:03:08.716Z,11.90
2018-09-08T05:03:44.048Z,11.97
2018-09-08T05:04:19.695Z,11.97
2018-09-08T05:04:55.152Z,11.97
2018-09-08T05:05:30.571Z,11.85
2018-09-08T05:06:06.594Z,11.97
2018-09-08T05:06:41.850Z,11.90
2018-09-08T05:07:17.235Z,11.94
2018-09-08T05:07:52.651Z,11.86
2018-09-08T05:08:27.972Z,11.94
2018-09-08T05:09:03.672Z,11.87
2018-09-08T05:09:38.896Z,11.90
2018-09-08T05:10:14.289Z,11.96
2018-09-08T05:10:51.921Z,11.93
2018-09-08T05:11:27.581Z,12.04
2018-09-08T05:12:03.126Z,12.11
2018-09-08T05:12:38.627Z,12.02
2018-09-08T05:13:13.966Z,11.99
2018-09-08T05:13:49.456Z,11.97
2018-09-08T05:14:25.585Z,12.06
2018-09-08T05:15:01.127Z,12.04
2018-09-08T05:15:36.636Z,12.04
2018-09-08T05:16:12.333Z,12.11
2018-09-08T05:16:47.683Z,12.02
2018-09-08T05:17:22.797Z,12.05
2018-09-08T05:17:58.508Z,12.02
2018-09-08T05:18:33.993Z,12.12
2018-09-08T05:19:09.418Z,11.99
2018-09-08T05:19:44.944Z,12.05
2018-09-08T05:20:20.466Z,12.04
2018-09-08T05:20:55.657Z,11.94
2018-09-08T05:21:31.744Z,12.06
2018-09-08T05:22:06.784Z,11.99
2018-09-08T05:22:42.105Z,12.02
2018-09-08T05:23:17.781Z,12.01
2018-09-08T05:23:53.041Z,11.99
2018-09-08T05:24:28.497Z,12.01
2018-09-08T05:25:03.967Z,12.01
2018-09-08T05:25:39.459Z,12.04
2018-09-08T05:26:14.701Z,12.06
2018-09-08T05:26:50.157Z,11.94
2018-09-08T05:27:25.626Z,12.05
2018-09-08T05:28:00.689Z,11.97
2018-09-08T05:28:36.343Z,11.96
2018-09-08T05:29:11.599Z,11.94
2018-09-08T05:29:47.188Z,11.96
2018-09-08T05:30:22.398Z,12.01
2018-09-08T05:30:57.759Z,12.04
2018-09-08T05:31:33.100Z,12.05
2018-09-08T05:32:08.668Z,12.06
2018-09-08T05:32:44.036Z,12.06
2018-09-08T05:33:19.363Z,12.05
2018-09-08T05:33:54.600Z,12.04
2018-09-08T05:34:29.856Z,12.08
2018-09-08T05:35:05.111Z,12.04
2018-09-08T05:35:40.539Z,12.01
2018-09-08T05:36:16.157Z,11.96
2018-09-08T05:36:51.727Z,12.09
2018-09-08T05:37:27.063Z,11.97
2018-09-08T05:38:02.787Z,12.05
2018-09-08T05:38:38.697Z,12.04
2018-09-08T05:39:13.914Z,12.04
2018-09-08T05:39:49.212Z,12.09
2018-09-08T05:40:24.814Z,12.11
2018-09-08T05:41:00.431Z,12.08
2018-09-08T05:41:35.780Z,12.02
2018-09-08T05:42:11.454Z,12.05
2018-09-08T05:42:46.919Z,12.12
2018-09-08T05:43:22.123Z,12.11
2018-09-08T05:43:57.549Z,12.12
2018-09-08T05:44:32.974Z,12.09
2018-09-08T05:45:08.426Z,12.13
2018-09-08T05:45:43.784Z,12.08
2018-09-08T05:46:19.287Z,12.19
2018-09-08T05:46:54.765Z,12.13
2018-09-08T05:47:30.351Z,12.13
2018-09-08T05:48:05.877Z,12.23
2018-09-08T05:48:41.103Z,12.20
2018-09-08T05:49:16.424Z,12.24
2018-09-08T05:49:52.061Z,12.26
2018-09-08T05:50:27.581Z,12.26
2018-09-08T05:51:03.170Z,12.16
2018-09-08T05:51:38.706Z,12.23
2018-09-08T05:52:14.081Z,12.23
2018-09-08T05:52:49.280Z,12.24
2018-09-08T05:53:24.756Z,12.21
2018-09-08T05:54:00.103Z,12.23
2018-09-08T05:54:35.223Z,12.27
2018-09-08T05:55:10.667Z,12.21
2018-09-08T05:55:46.444Z,12.30
2018-09-08T05:56:22.015Z,12.26
2018-09-08T05:56:57.236Z,12.39
2018-09-08T05:57:32.670Z,12.38
2018-09-08T05:58:08.141Z,12.46
2018-09-08T05:58:43.485Z,12.37
2018-09-08T05:59:18.752Z,12.39
2018-09-08T05:59:54.270Z,12.38
2018-09-08T06:00:29.572Z,12.56
2018-09-08T06:01:04.727Z,12.48
2018-09-08T06:01:40.131Z,12.51
2018-09-08T06:02:15.514Z,12.48
2018-09-08T06:02:52.771Z,12.39
2018-09-08T06:03:27.996Z,12.42
2018-09-08T06:04:03.333Z,12.46
2018-09-08T06:04:38.619Z,12.56
2018-09-08T06:05:14.208Z,12.49
2018-09-08T06:05:49.877Z,12.48
2018-09-08T06:06:25.213Z,12.57
2018-09-08T06:07:01.011Z,12.57
2018-09-08T06:07:36.364Z,12.59
2018-09-08T06:08:11.823Z,12.67
2018-09-08T06:08:47.060Z,12.71
2018-09-08T06:09:22.465Z,12.63
2018-09-08T06:09:57.846Z,12.74
2018-09-08T06:10:33.254Z,12.71
2018-09-08T06:11:08.878Z,12.75
2018-09-08T06:11:44.118Z,12.75
2018-09-08T06:12:19.281Z,12.81
2018-09-08T06:12:54.977Z,12.82
2018-09-08T06:13:30.530Z,12.82
2018-09-08T06:14:05.890Z,12.93
2018-09-08T06:14:41.128Z,12.96
2018-09-08T06:15:16.392Z,12.92
2018-09-08T06:15:51.826Z,12.99
2018-09-08T06:16:27.415Z,13.02
2018-09-08T06:17:02.641Z,13.07
2018-09-08T06:17:38.090Z,13.04
2018-09-08T06:18:13.390Z,13.17
2018-09-08T06:18:48.698Z,13.24
2018-09-08T06:19:24.496Z,13.29
2018-09-08T06:19:59.818Z,13.40
2018-09-08T06:20:35.189Z,13.33
2018-09-08T06:21:10.492Z,13.46
2018-09-08T06:21:45.853Z,13.56
2018-09-08T06:22:20.961Z,13.56
2018-09-08T06:22:56.629Z,13.55
2018-09-08T06:23:31.885Z,13.65
2018-09-08T06:24:07.246Z,13.63
2018-09-08T06:24:42.478Z,13.76
2018-09-08T06:25:18.524Z,13.88
2018-09-08T06:25:53.786Z,13.92
2018-09-08T06:26:29.241Z,13.98
2018-09-08T06:27:04.656Z,14.04
2018-09-08T06:27:39.813Z,13.95
2018-09-08T06:28:15.070Z,14.06
2018-09-08T06:28:50.391Z,14.06
2018-09-08T06:29:25.727Z,14.16
2018-09-08T06:30:01.565Z,14.21
2018-09-08T06:30:36.661Z,14.28
2018-09-08T06:31:11.815Z,14.28
2018-09-08T06:31:47.120Z,14.38
2018-09-08T06:32:22.127Z,14.50
2018-09-08T06:32:57.467Z,14.54
2018-09-08T06:33:32.890Z,14.68
2018-09-08T06:34:08.168Z,14.61
2018-09-08T06:34:43.390Z,14.69
2018-09-08T06:35:19.059Z,14.74
2018-09-08T06:35:54.297Z,14.81
2018-09-08T06:36:29.616Z,14.95
2018-09-08T06:37:04.838Z,15.09
2018-09-08T06:37:40.124Z,15.15
2018-09-08T06:38:15.485Z,15.23
2018-09-08T06:38:51.111Z,15.35
2018-09-08T06:39:26.562Z,15.57
2018-09-08T06:40:01.940Z,15.67
2018-09-08T06:40:37.224Z,15.75
2018-09-08T06:41:12.645Z,15.85
2018-09-08T06:41:48.189Z,15.96
2018-09-08T06:42:23.773Z,16.20
2018-09-08T06:42:59.287Z,16.33
2018-09-08T06:43:34.768Z,16.31
2018-09-08T06:44:10.024Z,16.42
2018-09-08T06:44:45.464Z,16.60
2018-09-08T06:45:20.836Z,16.80
2018-09-08T06:45:56.083Z,16.92
2018-09-08T06:46:31.867Z,17.14
2018-09-08T06:47:07.452Z,17.28
2018-09-08T06:47:42.824Z,17.15
2018-09-08T06:48:18.439Z,17.26
2018-09-08T06:48:53.791Z,17.35
2018-09-08T06:49:29.616Z,17.32
2018-09-08T06:50:04.954Z,17.41
2018-09-08T06:50:40.619Z,17.46
2018-09-08T06:51:15.873Z,17.48
2018-09-08T06:51:51.185Z,17.53
2018-09-08T06:52:26.837Z,17.54
2018-09-08T06:53:02.131Z,17.54
2018-09-08T06:53:37.408Z,17.64
2018-09-08T06:54:12.954Z,17.59
2018-09-08T06:54:48.434Z,17.46
2018-09-08T06:55:23.753Z,17.46
2018-09-08T06:55:59.068Z,17.55
2018-09-08T06:56:34.501Z,17.66
2018-09-08T06:57:09.841Z,17.67
2018-09-08T06:57:45.136Z,17.69
2018-09-08T06:58:20.514Z,17.54
2018-09-08T06:58:55.660Z,17.73
2018-09-08T06:59:30.932Z,17.82
2018-09-08T07:00:06.504Z,18.02
2018-09-08T07:00:41.934Z,18.18
2018-09-08T07:01:17.376Z,18.34
2018-09-08T07:01:52.540Z,18.36
2018-09-08T07:02:28.321Z,18.27
2018-09-08T07:03:03.739Z,18.31
2018-09-08T07:03:38.976Z,18.46
2018-09-08T07:04:14.597Z,18.52
2018-09-08T07:04:50.310Z,18.55
2018-09-08T07:05:25.871Z,18.58
2018-09-08T07:06:01.143Z,18.79
2018-09-08T07:06:36.708Z,18.87
2018-09-08T07:07:12.213Z,19.05
2018-09-08T07:07:47.674Z,18.68
2018-09-08T07:08:23.030Z,18.74
2018-09-08T07:08:58.564Z,18.68
2018-09-08T07:09:33.649Z,18.65
2018-09-08T07:10:09.142Z,18.76
2018-09-08T07:10:44.723Z,18.95
2018-09-08T07:11:20.255Z,18.90
2018-09-08T07:11:55.613Z,19.15
2018-09-08T07:12:30.729Z,19.24
2018-09-08T07:13:06.062Z,19.33
2018-09-08T07:13:41.413Z,19.31
2018-09-08T07:14:17.009Z,19.39
2018-09-08T07:14:52.354Z,19.42
2018-09-08T07:15:27.456Z,19.38
2018-09-08T07:16:03.020Z,19.68
2018-09-08T07:16:38.507Z,19.88
2018-09-08T07:17:13.958Z,19.83
2018-09-08T07:17:49.286Z,19.80
2018-09-08T07:18:24.649Z,19.95
2018-09-08T07:19:00.351Z,20.09
2018-09-08T07:19:35.949Z,20.24
2018-09-08T07:20:11.718Z,20.39
2018-09-08T07:20:47.064Z,20.20
2018-09-08T07:21:22.524Z,20.30
2018-09-08T07:21:58.058Z,20.35
2018-09-08T07:22:33.297Z,20.20
2018-09-08T07:23:09.582Z,20.38
2018-09-08T07:23:45.081Z,20.30
2018-09-08T07:24:20.705Z,20.46
2018-09-08T07:24:56.521Z,20.46
2018-09-08T07:25:31.968Z,20.34
2018-09-08T07:26:07.342Z,20.39
2018-09-08T07:26:43.145Z,20.34
2018-09-08T07:27:18.903Z,20.43
2018-09-08T07:27:54.447Z,20.53
2018-09-08T07:28:29.747Z,20.72
2018-09-08T07:29:05.283Z,20.93
2018-09-08T07:29:40.684Z,20.95
2018-09-08T07:30:15.993Z,21.30
2018-09-08T07:30:51.350Z,20.95
2018-09-08T07:31:26.919Z,20.84
2018-09-08T07:32:02.241Z,20.83
2018-09-08T07:32:38.075Z,20.71
2018-09-08T07:33:13.295Z,20.72
2018-09-08T07:33:48.670Z,20.58
2018-09-08T07:34:24.158Z,20.65
2018-09-08T07:34:59.685Z,20.74
2018-09-08T07:35:35.013Z,20.35
2018-09-08T07:36:10.622Z,20.30
2018-09-08T07:36:46.082Z,20.24
2018-09-08T07:37:21.443Z,20.18
2018-09-08T07:37:56.615Z,19.94
2018-09-08T07:38:32.418Z,19.70
2018-09-08T07:39:07.835Z,19.68
2018-09-08T07:39:43.098Z,19.65
2018-09-08T07:40:18.542Z,19.53
2018-09-08T07:40:53.966Z,19.73
2018-09-08T07:41:29.295Z,19.86